Time;durP1;ratioP1;P1;durP2;ratioP2;P2;SDS_P1;SDS_P2;PMS_P1;PMS_P2;Temp;Humidity;BMP_temperature;BMP_pressure;BME280_temperature;BME280_humidity;BME280_pressure;Samples;Min_cycle;Max_cycle;Signal;HPM_P1;HPM_P2
2023/07/10 00:01:23;;;;;;;5.40;3.75;;;;;;;17.67;100.00;101850.22;5050275;28;20072;-46
2023/07/10 00:03:48;;;;;;;5.63;3.55;;;;;;;18.23;100.00;101935.50;5033194;28;20359;-44
2023/07/10 00:06:15;;;;;;;7.80;4.25;;;;;;;18.27;100.00;101937.06;5034395;28;20037;-45
2023/07/10 00:08:41;;;;;;;8.63;3.65;;;;;;;17.87;100.00;101867.91;5034529;28;20476;-45
2023/07/10 00:11:22;;;;;;;6.60;3.45;;;;;;;17.85;100.00;101865.34;5033609;28;20041;-46
2023/07/10 00:13:48;;;;;;;5.95;3.33;;;;;;;18.28;100.00;101922.81;5033128;28;20124;-44
2023/07/10 00:16:19;;;;;;;5.35;3.38;;;;;;;18.34;100.00;101949.19;5049909;28;20536;-44
2023/07/10 00:18:45;;;;;;;4.53;3.42;;;;;;;18.28;100.00;101938.81;5034505;28;20444;-44
2023/07/10 00:21:10;;;;;;;5.82;3.10;;;;;;;17.99;100.00;101878.00;5034232;28;20095;-44
2023/07/10 00:23:36;;;;;;;6.25;3.45;;;;;;;18.42;100.00;101938.13;5034782;28;20037;-46
2023/07/10 00:26:01;;;;;;;9.25;3.70;;;;;;;18.02;100.00;101877.88;5034163;28;20045;-46
2023/07/10 00:28:27;;;;;;;5.13;3.42;;;;;;;18.02;100.00;101872.53;5034535;28;20477;-45
2023/07/10 00:30:52;;;;;;;6.05;3.45;;;;;;;18.17;100.00;101895.81;5034217;28;20390;-45
2023/07/10 00:33:20;;;;;;;6.25;3.53;;;;;;;18.36;100.00;101938.44;5049205;28;20041;-44
2023/07/10 00:35:45;;;;;;;6.70;3.58;;;;;;;18.39;100.00;101939.16;5034107;28;20033;-46
2023/07/10 00:38:31;;;;;;;5.88;3.03;;;;;;;18.39;100.00;101943.63;5049325;28;20068;-44
2023/07/10 00:40:58;;;;;;;5.30;3.40;;;;;;;18.10;100.00;101886.34;5033707;28;20107;-46
2023/07/10 00:43:42;;;;;;;5.68;4.50;;;;;;;18.17;100.00;101889.59;5048609;28;20034;-43
2023/07/10 00:46:18;;;;;;;6.28;3.58;;;;;;;18.36;100.00;101912.63;5032721;28;20030;-48
2023/07/10 00:48:48;;;;;;;5.93;3.40;;;;;;;18.42;100.00;101927.47;5033980;28;20087;-46
2023/07/10 00:51:22;;;;;;;5.93;3.57;;;;;;;18.03;100.00;101863.63;5032740;28;20041;-45
2023/07/10 00:53:48;;;;;;;7.00;3.85;;;;;;;18.08;100.00;101890.03;5049148;28;20037;-44
2023/07/10 00:56:18;;;;;;;6.00;3.65;;;;;;;18.08;100.00;101882.91;5033588;28;20034;-44
2023/07/10 00:58:45;;;;;;;4.27;3.07;;;;;;;18.38;100.00;101932.13;5033416;28;20111;-50
2023/07/10 01:01:23;;;;;;;5.95;3.92;;;;;;;18.42;100.00;101946.13;5034018;28;20272;-48
2023/07/10 01:03:50;;;;;;;8.13;3.53;;;;;;;18.34;100.00;101949.19;5033812;28;20109;-45
2023/07/10 01:06:25;;;;;;;6.25;3.35;;;;;;;17.94;100.00;101870.25;5033589;28;20388;-45
2023/07/10 01:08:59;;;;;;;8.75;3.50;;;;;;;18.19;100.00;101933.91;5033480;28;20456;-44
2023/07/10 01:11:24;;;;;;;6.55;3.90;;;;;;;18.14;100.00;101929.72;5033336;28;20451;-45
2023/07/10 01:13:51;;;;;;;4.00;3.13;;;;;;;17.97;100.00;101931.38;5048747;28;20132;-44
2023/07/10 01:16:17;;;;;;;6.38;3.88;;;;;;;17.55;100.00;101885.38;5033223;28;20038;-46
2023/07/10 01:18:43;;;;;;;7.40;3.90;;;;;;;17.45;100.00;101876.03;5033183;28;20040;-45
2023/07/10 01:21:09;;;;;;;6.20;4.30;;;;;;;17.75;100.00;101938.59;5048648;28;20033;-46
2023/07/10 01:23:34;;;;;;;6.13;4.20;;;;;;;17.62;100.00;101932.09;5033161;28;20044;-45
2023/07/10 01:26:01;;;;;;;4.45;3.60;;;;;;;16.82;100.00;101800.75;5048195;28;20038;-47
2023/07/10 01:28:27;;;;;;;5.70;3.45;;;;;;;17.44;100.00;101914.22;5033245;28;20037;-44
2023/07/10 01:30:54;;;;;;;4.95;4.25;;;;;;;17.08;100.00;101867.91;5048532;28;20029;-46
2023/07/10 01:33:24;;;;;;;5.80;3.78;;;;;;;17.43;100.00;101947.97;5031760;28;20029;-44
2023/07/10 01:35:52;;;;;;;9.95;3.85;;;;;;;16.96;100.00;101865.81;5047771;28;20083;-47
2023/07/10 01:38:17;;;;;;;6.40;3.05;;;;;;;16.94;100.00;101872.97;5048279;28;20033;-45
2023/07/10 01:40:48;;;;;;;4.35;3.00;;;;;;;16.82;100.00;101861.06;5015353;28;20478;-45
2023/07/10 01:43:13;;;;;;;4.97;3.20;;;;;;;17.12;100.00;101915.63;5048279;28;20112;-43
2023/07/10 01:45:44;;;;;;;3.45;2.53;;;;;;;17.07;100.00;101919.41;5048138;28;20069;-46
2023/07/10 01:48:11;;;;;;;3.58;3.05;;;;;;;16.89;100.00;101891.78;5032979;28;20033;-46
2023/07/10 01:50:36;;;;;;;6.22;2.70;;;;;;;17.04;100.00;101925.72;5032574;28;20037;-48
2023/07/10 01:53:02;;;;;;;4.53;2.58;;;;;;;16.97;100.00;101926.03;5032260;28;20400;-49
2023/07/10 01:55:29;;;;;;;6.78;2.45;;;;;;;16.60;100.00;101862.88;5031871;28;20113;-47
2023/07/10 01:57:55;;;;;;;4.03;2.38;;;;;;;16.47;100.00;101851.84;5032641;28;20091;-46
2023/07/10 02:00:20;;;;;;;5.53;2.70;;;;;;;16.90;100.00;101922.75;5032770;28;20033;-44
2023/07/10 02:02:45;;;;;;;5.68;2.33;;;;;;;16.90;100.00;101932.56;5048045;28;20087;-46
2023/07/10 02:05:11;;;;;;;4.57;2.72;;;;;;;16.87;100.00;101921.09;5032435;28;20120;-46
2023/07/10 02:07:36;;;;;;;3.45;2.10;;;;;;;16.48;100.00;101860.69;5032275;28;20030;-47
2023/07/10 02:10:02;;;;;;;4.00;2.22;;;;;;;16.81;100.00;101909.88;5032578;28;20156;-47
2023/07/10 02:12:28;;;;;;;5.25;2.30;;;;;;;16.80;100.00;101911.66;5032796;28;20041;-45
2023/07/10 02:14:53;;;;;;;7.40;2.65;;;;;;;16.39;100.00;101845.09;5047471;28;20049;-46
2023/07/10 02:17:18;;;;;;;5.70;2.40;;;;;;;16.77;100.00;101918.88;5032768;28;20029;-48
2023/07/10 02:19:43;;;;;;;3.78;3.00;;;;;;;16.75;100.00;101912.78;5030801;28;20046;-47
2023/07/10 02:22:09;;;;;;;6.78;3.03;;;;;;;16.43;100.00;101860.03;5032123;28;20029;-49
2023/07/10 02:24:34;;;;;;;6.18;2.88;;;;;;;16.69;100.00;101910.34;5031063;28;20453;-46
2023/07/10 02:26:59;;;;;;;6.60;2.85;;;;;;;16.65;100.00;101908.75;5032400;28;20038;-45
2023/07/10 02:29:25;;;;;;;6.40;3.20;;;;;;;16.69;100.00;101910.34;5031032;28;20129;-45
2023/07/10 02:31:51;;;;;;;6.85;3.10;;;;;;;16.28;100.00;101841.13;5032372;28;20120;-45
2023/07/10 02:34:16;;;;;;;4.28;2.60;;;;;;;16.65;100.00;101906.09;5031067;28;20120;-46
2023/07/10 02:36:41;;;;;;;5.70;2.80;;;;;;;16.63;100.00;101907.94;5030673;28;20045;-45
2023/07/10 02:39:07;;;;;;;7.53;3.17;;;;;;;16.22;100.00;101843.13;5030858;28;20030;-46
2023/07/10 02:41:32;;;;;;;7.15;3.25;;;;;;;16.21;100.00;101834.31;5032226;28;20041;-45
2023/07/10 02:43:57;;;;;;;7.40;2.90;;;;;;;16.55;100.00;101892.28;5047642;28;20033;-46
2023/07/10 02:46:23;;;;;;;6.35;3.30;;;;;;;16.64;100.00;101907.00;5032229;28;20064;-46
2023/07/10 02:48:48;;;;;;;8.38;3.90;;;;;;;16.16;100.00;101828.31;5032213;28;20473;-45
2023/07/10 02:51:13;;;;;;;7.28;2.92;;;;;;;16.17;100.00;101838.00;5032140;28;20087;-44
2023/07/10 02:53:39;;;;;;;8.85;3.70;;;;;;;16.48;100.00;101900.56;5032216;28;20061;-44
2023/07/10 02:56:05;;;;;;;9.77;3.63;;;;;;;16.51;100.00;101898.66;5031805;28;20052;-45
2023/07/10 02:58:30;;;;;;;8.27;3.42;;;;;;;16.23;100.00;101858.13;5032118;28;20120;-45
2023/07/10 03:01:01;;;;;;;5.90;3.28;;;;;;;16.12;100.00;101841.75;5032147;28;20125;-43
2023/07/10 03:03:26;;;;;;;8.20;3.33;;;;;;;16.07;100.00;101843.75;5032031;28;20033;-45
2023/07/10 03:05:56;;;;;;;5.95;3.10;;;;;;;16.46;100.00;101916.53;5033324;28;20381;-49
2023/07/10 03:08:21;;;;;;;8.20;3.05;;;;;;;16.48;100.00;101913.84;5035877;28;20029;-46
2023/07/10 03:10:47;;;;;;;7.15;3.08;;;;;;;16.46;100.00;101924.50;5035861;28;20017;-48
2023/07/10 03:13:12;;;;;;;6.70;3.38;;;;;;;16.05;100.00;101849.09;5040289;28;20069;-46
2023/07/10 03:15:37;;;;;;;8.05;3.53;;;;;;;16.04;100.00;101849.16;5055748;28;20028;-43
2023/07/10 03:18:03;;;;;;;9.52;3.47;;;;;;;15.96;100.00;101843.28;5055489;28;20037;-45
2023/07/10 03:20:28;;;;;;;7.28;3.40;;;;;;;16.33;100.00;101916.19;5055464;28;20033;-47
2023/07/10 03:22:53;;;;;;;10.02;3.70;;;;;;;15.94;100.00;101855.75;5055320;28;20123;-45
2023/07/10 03:25:18;;;;;;;9.50;3.85;;;;;;;16.21;100.00;101908.69;5055223;28;20374;-46
2023/07/10 03:27:47;;;;;;;6.20;3.30;;;;;;;15.97;100.00;101859.16;5054080;28;20041;-46
2023/07/10 03:30:12;;;;;;;5.95;3.05;;;;;;;16.00;100.00;101860.81;5055397;28;20040;-47
2023/07/10 03:32:37;;;;;;;9.52;3.63;;;;;;;16.36;100.00;101923.16;5055182;28;20037;-44
2023/07/10 03:35:03;;;;;;;4.47;2.90;;;;;;;16.07;100.00;101872.97;5055070;28;20446;-49
2023/07/10 03:37:28;;;;;;;8.02;2.90;;;;;;;16.37;100.00;101926.69;5037690;28;20041;-45
2023/07/10 03:39:54;;;;;;;6.47;2.58;;;;;;;16.38;100.00;101934.59;5055405;28;20123;-44
2023/07/10 03:42:19;;;;;;;5.40;2.65;;;;;;;16.44;100.00;101936.13;5055002;28;20114;-45
2023/07/10 03:44:44;;;;;;;5.40;2.60;;;;;;;16.45;100.00;101941.41;5055090;28;20033;-44
2023/07/10 03:47:10;;;;;;;8.20;2.78;;;;;;;16.11;100.00;101891.34;5055156;28;20452;-45
2023/07/10 03:49:35;;;;;;;7.63;2.90;;;;;;;16.39;100.00;101927.50;5053558;28;20543;-48
2023/07/10 03:52:00;;;;;;;4.93;2.63;;;;;;;16.40;100.00;101940.72;5055089;28;20033;-48
2023/07/10 03:54:26;;;;;;;7.25;2.55;;;;;;;16.13;100.00;101889.53;5055103;28;20044;-44
2023/07/10 03:56:51;;;;;;;6.70;2.65;;;;;;;15.95;100.00;101876.94;5054990;28;20114;-49
2023/07/10 03:59:17;;;;;;;9.93;3.17;;;;;;;16.15;100.00;101908.91;5054776;28;20037;-43
2023/07/10 04:01:43;;;;;;;5.35;2.50;;;;;;;16.03;100.00;101889.91;5054866;28;20036;-48
2023/07/10 04:04:09;;;;;;;6.28;2.47;;;;;;;16.20;100.00;101911.38;5054545;28;20033;-46
2023/07/10 04:06:34;;;;;;;6.70;3.03;;;;;;;16.39;100.00;101951.41;5054870;28;20098;-45
2023/07/10 04:09:00;;;;;;;7.55;2.70;;;;;;;16.11;100.00;101914.41;5054669;28;20473;-49
2023/07/10 04:11:25;;;;;;;6.80;2.63;;;;;;;16.32;100.00;101967.56;5054652;28;20373;-48
2023/07/10 04:13:51;;;;;;;4.93;1.92;;;;;;;16.33;100.00;101979.94;5036604;28;20072;-49
2023/07/10 04:16:18;;;;;;;8.82;2.67;;;;;;;16.33;100.00;101971.97;5054133;28;20039;-45
2023/07/10 04:18:44;;;;;;;8.73;2.67;;;;;;;16.23;100.00;101951.13;5053533;28;20037;-44
2023/07/10 04:21:20;;;;;;;6.93;2.70;;;;;;;16.38;100.00;101966.47;5036817;28;20033;-48
2023/07/10 04:23:46;;;;;;;6.25;2.67;;;;;;;15.88;100.00;101890.53;5054555;28;20051;-45
2023/07/10 04:26:18;;;;;;;5.28;2.95;;;;;;;16.02;100.00;101909.47;5054036;28;20140;-44
2023/07/10 04:28:47;;;;;;;4.82;2.58;;;;;;;16.56;100.00;101978.22;5054340;28;20119;-43
2023/07/10 04:31:13;;;;;;;9.52;2.78;;;;;;;16.28;100.00;101925.25;5036210;28;20120;-44
2023/07/10 04:33:39;;;;;;;7.22;2.60;;;;;;;16.21;100.00;101907.81;5054525;28;20111;-45
2023/07/10 04:36:04;;;;;;;6.97;2.42;;;;;;;16.55;100.00;101968.53;5054149;28;20683;-44
2023/07/10 04:38:30;;;;;;;11.32;2.80;;;;;;;16.26;100.00;101914.69;5053877;28;20104;-52
2023/07/10 04:41:04;;;;;;;5.82;2.95;;;;;;;16.62;100.00;101975.31;5053937;28;20032;-45
2023/07/10 04:43:31;;;;;;;6.50;2.55;;;;;;;16.62;100.00;101976.19;5053664;28;20482;-47
2023/07/10 04:45:58;;;;;;;6.80;2.25;;;;;;;16.56;100.00;101979.09;5053775;28;20381;-46
2023/07/10 04:48:24;;;;;;;5.78;2.65;;;;;;;16.59;100.00;101978.09;5053936;28;20116;-45
2023/07/10 04:50:51;;;;;;;7.63;2.40;;;;;;;16.55;100.00;101968.53;5036061;28;20053;-44
2023/07/10 04:53:17;;;;;;;9.10;3.28;;;;;;;16.29;100.00;101911.91;5053617;28;20394;-45
2023/07/10 04:55:43;;;;;;;5.90;2.58;;;;;;;16.73;100.00;101971.31;5053744;28;20041;-45
2023/07/10 04:58:10;;;;;;;7.10;2.70;;;;;;;16.69;100.00;101953.78;5035948;28;20041;-48
2023/07/10 05:00:35;;;;;;;7.05;2.75;;;;;;;16.76;100.00;101960.56;5036103;28;20502;-45
2023/07/10 05:03:02;;;;;;;6.93;2.63;;;;;;;16.89;100.00;101974.22;5053587;28;20061;-47
2023/07/10 05:05:27;;;;;;;8.15;2.42;;;;;;;16.80;100.00;101961.31;5035835;28;20380;-46
2023/07/10 05:07:53;;;;;;;7.97;2.35;;;;;;;16.97;100.00;101979.22;5052404;28;20124;-45
2023/07/10 05:10:18;;;;;;;4.63;2.30;;;;;;;17.04;100.00;101973.59;5035329;28;20055;-45
2023/07/10 05:12:43;;;;;;;7.10;2.75;;;;;;;17.10;100.00;101980.47;5053835;28;20040;-44
2023/07/10 05:15:09;;;;;;;4.18;2.20;;;;;;;17.15;100.00;101981.13;5053443;28;20179;-45
2023/07/10 05:17:34;;;;;;;5.97;2.63;;;;;;;16.95;100.00;101949.19;5053559;28;20061;-44
2023/07/10 05:20:00;;;;;;;7.50;2.83;;;;;;;17.29;100.00;101970.78;5052800;28;20041;-45
2023/07/10 05:22:26;;;;;;;9.20;2.63;;;;;;;17.25;100.00;101972.69;5053305;28;20033;-50
2023/07/10 05:24:51;;;;;;;7.32;2.40;;;;;;;17.44;100.00;101986.97;5053370;28;20056;-46
2023/07/10 05:27:16;;;;;;;7.65;2.35;;;;;;;17.49;100.00;101977.91;5035303;28;20143;-44
2023/07/10 05:29:42;;;;;;;6.40;3.08;;;;;;;17.58;100.00;101975.75;5052523;28;20114;-44
2023/07/10 05:32:08;;;;;;;6.30;2.30;;;;;;;17.57;100.00;101963.34;5052924;28;20037;-49
2023/07/10 05:34:33;;;;;;;7.30;2.78;;;;;;;17.64;100.00;101959.50;5034913;28;20029;-46
2023/07/10 05:36:58;;;;;;;11.43;2.42;;;;;;;17.87;100.00;101972.66;5034416;28;20080;-46
2023/07/10 05:39:24;;;;;;;6.97;2.38;;;;;;;18.03;100.00;101982.66;5034707;28;20456;-46
2023/07/10 05:41:49;;;;;;;7.10;2.15;;;;;;;18.17;100.00;101978.41;5052902;28;20087;-45
2023/07/10 05:44:14;;;;;;;7.88;2.53;;;;;;;18.28;100.00;101989.44;5034821;28;20039;-47
2023/07/10 05:46:40;;;;;;;11.85;2.60;;;;;;;18.30;100.00;101971.56;5052876;28;20067;-45
2023/07/10 05:49:05;;;;;;;6.30;2.10;;;;;;;18.45;100.00;101997.50;5052973;28;20037;-47
2023/07/10 05:51:30;;;;;;;12.05;2.78;;;;;;;18.59;100.00;102004.94;5034938;28;20048;-49
2023/07/10 05:53:56;;;;;;;5.53;2.00;;;;;;;18.62;100.00;101999.44;5052716;28;20469;-45
2023/07/10 05:56:23;;;;;;;6.28;2.53;;;;;;;18.16;100.00;101903.84;5034696;28;20539;-46
2023/07/10 05:58:49;;;;;;;10.05;2.90;;;;;;;18.80;100.00;102003.88;5052304;28;20032;-46
2023/07/10 06:01:15;;;;;;;7.90;2.45;;;;;;;18.37;100.00;101911.72;5052794;28;20071;-47
2023/07/10 06:03:41;;;;;;;8.75;2.38;;;;;;;19.05;100.00;102008.91;5035049;28;20477;-48
2023/07/10 06:06:06;;;;;;;8.13;2.45;;;;;;;19.14;100.00;102015.59;5050962;28;20060;-45
2023/07/10 06:08:33;;;;;;;8.75;3.53;;;;;;;19.25;100.00;102027.47;5052120;28;20037;-47
2023/07/10 06:10:58;;;;;;;7.40;2.58;;;;;;;19.33;100.00;102017.25;5034644;28;20033;-44
2023/07/10 06:13:24;;;;;;;7.43;2.45;;;;;;;19.45;100.00;102027.38;5051896;28;20542;-49
2023/07/10 06:15:51;;;;;;;9.45;2.55;;;;;;;19.41;100.00;102009.75;5034348;28;20040;-45
2023/07/10 06:18:17;;;;;;;8.63;2.40;;;;;;;19.56;100.00;102029.47;5034138;28;20043;-44
2023/07/10 06:20:43;;;;;;;8.32;2.88;;;;;;;19.51;100.00;102010.16;5052286;28;20453;-45
2023/07/10 06:23:08;;;;;;;6.68;2.28;;;;;;;19.30;100.00;101969.34;5034368;28;20454;-44
2023/07/10 06:25:34;;;;;;;8.40;2.10;;;;;;;19.74;100.00;102035.69;5050675;28;20064;-46
2023/07/10 06:27:59;;;;;;;6.32;2.30;;;;;;;19.75;100.00;102024.06;5051859;28;20117;-45
2023/07/10 06:30:25;;;;;;;6.40;2.10;;;;;;;19.47;100.00;101977.41;5052159;28;20029;-45
2023/07/10 06:32:51;;;;;;;6.80;2.22;;;;;;;19.80;100.00;102020.22;5051933;28;20037;-47
2023/07/10 06:35:16;;;;;;;9.15;3.05;;;;;;;20.05;100.00;102041.19;5051845;28;20041;-45
2023/07/10 06:37:43;;;;;;;8.48;2.70;;;;;;;20.03;100.00;102035.03;5034214;28;20036;-47
2023/07/10 06:40:15;;;;;;;9.30;3.10;;;;;;;19.88;100.00;101988.59;5034589;28;20080;-45
2023/07/10 06:42:41;;;;;;;10.32;2.85;;;;;;;20.11;100.00;102032.84;5038380;28;20121;-45
2023/07/10 06:45:07;;;;;;;6.18;2.35;;;;;;;19.91;100.00;101996.47;5055634;28;20476;-45
2023/07/10 06:47:39;;;;;;;9.43;2.30;;;;;;;20.02;100.00;102001.25;5038290;28;20039;-46
2023/07/10 06:50:05;;;;;;;8.35;2.55;;;;;;;20.38;100.00;102049.22;5056132;28;20067;-45
2023/07/10 06:52:30;;;;;;;6.05;2.70;;;;;;;20.56;100.00;102072.31;5055929;28;20064;-48
2023/07/10 06:54:55;;;;;;;8.80;2.58;;;;;;;20.56;100.00;102058.94;5055774;28;20098;-46
2023/07/10 06:57:21;;;;;;;7.75;2.63;;;;;;;20.69;100.00;102081.41;5055912;28;20086;-44
2023/07/10 06:59:46;;;;;;;9.27;2.33;;;;;;;20.39;100.00;102019.75;5055846;28;20091;-45
2023/07/10 07:02:12;;;;;;;7.72;2.50;;;;;;;20.77;100.00;102081.84;5054443;28;20033;-46
2023/07/10 07:04:37;;;;;;;8.75;2.35;;;;;;;20.77;100.00;102065.78;5038022;28;20067;-45
2023/07/10 07:07:03;;;;;;;9.07;2.33;;;;;;;20.94;100.00;102079.09;5055581;28;20029;-45
2023/07/10 07:09:28;;;;;;;8.95;2.20;;;;;;;20.71;100.00;102029.53;5055612;28;20561;-45
2023/07/10 07:11:54;;;;;;;7.00;2.30;;;;;;;20.81;100.00;102029.84;5054504;28;20033;-47
2023/07/10 07:14:19;;;;;;;6.18;2.00;;;;;;;21.27;100.00;102097.78;5055622;28;20072;-45
2023/07/10 07:16:44;;;;;;;4.60;2.40;;;;;;;21.22;100.00;102079.28;5055477;28;20079;-45
2023/07/10 07:19:09;;;;;;;8.00;2.45;;;;;;;21.17;100.00;102099.22;5055373;28;20041;-46
2023/07/10 07:21:35;;;;;;;10.30;2.20;;;;;;;20.86;100.00;102029.63;5055431;28;20033;-42
2023/07/10 07:24:00;;;;;;;7.82;2.67;;;;;;;21.31;100.00;102094.81;5055116;28;20033;-45
2023/07/10 07:26:25;;;;;;;6.63;1.92;;;;;;;20.90;100.00;102042.72;5055445;28;20100;-45
2023/07/10 07:28:51;;;;;;;9.02;2.40;;;;;;;21.40;100.00;102111.31;5055397;28;20503;-46
2023/07/10 07:31:16;;;;;;;8.48;2.38;;;;;;;21.48;100.00;102099.19;5055564;28;20555;-48
2023/07/10 07:33:42;;;;;;;7.38;2.08;;;;;;;21.50;100.00;102091.09;5055214;28;20124;-47
2023/07/10 07:36:07;;;;;;;5.45;1.75;;;;;;;21.54;100.00;102065.84;5055369;28;20029;-50
2023/07/10 07:38:33;;;;;;;7.03;2.45;;;;;;;21.90;100.00;102087.81;5055274;28;20084;-45
2023/07/10 07:40:59;;;;;;;8.05;2.28;;;;;;;22.12;100.00;102088.25;5037286;28;20036;-46
2023/07/10 07:43:24;;;;;;;8.23;2.47;;;;;;;21.97;100.00;102038.25;5054927;28;20037;-48
2023/07/10 07:45:54;;;;;;;7.03;2.15;;;;;;;22.10;100.00;102033.84;5055328;28;20115;-50
2023/07/10 07:48:21;;;;;;;9.35;2.35;;;;;;;22.30;100.00;102037.94;5036918;28;20036;-47
2023/07/10 07:51:00;;;;;;;10.38;2.08;;;;;;;22.62;100.00;102026.06;5053856;28;20048;-46
2023/07/10 07:53:28;;;;;;;4.47;1.63;;;;;;;23.43;100.00;102118.41;5037111;28;20117;-46
2023/07/10 07:55:53;;;;;;;7.22;2.10;;;;;;;23.50;100.00;102112.50;5036661;28;20048;-47
2023/07/10 07:58:18;;;;;;;9.43;2.20;;;;;;;24.21;100.00;102112.16;5054871;28;20025;-46
2023/07/10 08:00:44;;;;;;;7.50;2.10;;;;;;;24.61;100.00;102123.69;5053657;28;20064;-47
2023/07/10 08:03:10;;;;;;;7.43;2.17;;;;;;;24.32;100.00;102065.66;5054562;28;20468;-47
2023/07/10 08:05:35;;;;;;;11.13;2.45;;;;;;;24.71;100.00;102099.66;5054302;28;20041;-45
2023/07/10 08:08:02;;;;;;;8.90;2.38;;;;;;;25.33;100.00;102120.25;5054632;28;20496;-47
2023/07/10 08:10:32;;;;;;;6.55;2.03;;;;;;;25.65;100.00;102113.34;5054582;28;20103;-44
2023/07/10 08:12:58;;;;;;;12.20;2.45;;;;;;;25.66;100.00;102106.06;5054387;28;20424;-47
2023/07/10 08:15:24;;;;;;;7.75;2.60;;;;;;;26.04;100.00;102119.34;5054420;28;20094;-46
2023/07/10 08:17:49;;;;;;;9.43;3.25;;;;;;;25.72;100.00;102124.50;5054601;28;20123;-47
2023/07/10 08:20:14;;;;;;;7.88;2.30;;;;;;;25.46;100.00;102133.66;5054339;28;20423;-47
2023/07/10 08:22:40;;;;;;;7.22;2.70;;;;;;;25.74;100.00;102095.59;5036418;28;20461;-48
2023/07/10 08:25:06;;;;;;;10.57;2.35;;;;;;;26.11;100.00;102126.00;5054292;28;20083;-51
2023/07/10 08:27:31;;;;;;;8.63;2.70;;;;;;;26.20;100.00;102120.78;5054712;28;20052;-50
2023/07/10 08:29:57;;;;;;;10.43;2.22;;;;;;;26.33;100.00;102117.13;5054270;28;20464;-50
2023/07/10 08:32:22;;;;;;;6.32;1.83;;;;;;;26.24;100.00;102068.25;5054148;28;20369;-49
2023/07/10 08:34:47;;;;;;;8.95;2.58;;;;;;;26.08;100.00;102086.63;5036530;28;20037;-52
2023/07/10 08:37:13;;;;;;;7.05;2.55;;;;;;;26.28;100.00;102118.34;5054355;28;20033;-45
2023/07/10 08:39:38;;;;;;;8.02;2.72;;;;;;;26.21;100.00;102108.16;5036476;28;20045;-46
2023/07/10 08:42:18;;;;;;;8.48;3.00;;;;;;;26.56;100.00;102117.00;5053144;28;20033;-48
2023/07/10 08:44:43;;;;;;;10.15;2.58;;;;;;;26.87;100.00;102123.56;5052863;28;20070;-46
2023/07/10 08:47:18;;;;;;;10.48;2.67;;;;;;;26.99;100.00;102148.75;5035833;28;20025;-52
2023/07/10 08:49:54;;;;;;;6.97;2.15;;;;;;;27.45;100.00;102135.91;5036342;28;20036;-47
2023/07/10 08:52:48;;;;;;;9.60;3.53;;;;;;;27.42;100.00;102141.56;5054109;28;20498;-47
2023/07/10 08:55:21;;;;;;;7.13;1.92;;;;;;;27.48;100.00;102142.91;5036106;28;20052;-49
2023/07/10 08:57:54;;;;;;;6.80;1.80;;;;;;;27.50;100.00;102130.09;5052253;28;20041;-46
2023/07/10 09:00:19;;;;;;;7.63;1.92;;;;;;;27.46;100.00;102094.38;5053842;28;20029;-46
2023/07/10 09:02:51;;;;;;;9.00;2.55;;;;;;;27.28;100.00;102139.97;5035729;28;20037;-45
2023/07/10 09:05:22;;;;;;;6.95;2.35;;;;;;;27.13;100.00;102089.00;5019239;28;20036;-46
2023/07/10 09:07:48;;;;;;;6.63;2.60;;;;;;;27.76;100.00;102147.72;5035832;28;20409;-49
2023/07/10 09:10:21;;;;;;;7.90;2.13;;;;;;;27.67;100.00;102129.59;5053489;28;20029;-46
2023/07/10 09:12:52;;;;;;;7.05;1.50;;;;;;;27.75;100.00;102135.19;5053595;28;20029;-47
2023/07/10 09:15:49;;;;;;;6.68;2.03;;;;;;;27.81;100.00;102150.91;5035563;28;20183;-45
2023/07/10 09:18:19;;;;;;;8.52;2.83;;;;;;;27.82;100.00;102102.06;5052647;28;20052;-51
2023/07/10 09:20:45;;;;;;;5.00;2.03;;;;;;;28.21;100.00;102149.25;5053258;28;20116;-45
2023/07/10 09:23:17;;;;;;;6.03;1.83;;;;;;;27.74;100.00;102107.28;5035401;28;20484;-52
2023/07/10 09:25:43;;;;;;;8.63;2.50;;;;;;;27.41;100.00;102083.03;5053339;28;20396;-51
2023/07/10 09:28:09;;;;;;;6.07;2.20;;;;;;;27.47;100.00;102104.19;5053209;28;20037;-51
2023/07/10 09:30:43;;;;;;;8.40;2.13;;;;;;;27.65;100.00;102148.63;5035257;28;20508;-49
2023/07/10 09:33:09;;;;;;;8.77;2.40;;;;;;;27.47;100.00;102096.06;5052965;28;20029;-52
2023/07/10 09:35:36;;;;;;;5.43;1.85;;;;;;;27.45;100.00;102092.63;5052899;28;20033;-49
2023/07/10 09:38:02;;;;;;;7.28;1.88;;;;;;;27.10;100.00;102137.91;5053159;28;20040;-50
2023/07/10 09:40:48;;;;;;;5.43;1.45;;;;;;;27.30;100.00;102145.25;5034940;28;20384;-50
2023/07/10 09:43:19;;;;;;;7.50;1.90;;;;;;;27.06;100.00;102099.47;5053010;28;20057;-48
2023/07/10 09:45:48;;;;;;;;;;;;;;;27.25;100.00;102152.88;5053354;28;20033;-48
2023/07/10 09:48:34;;;;;;;8.15;2.00;;;;;;;27.22;100.00;102151.28;5053115;28;19913;-49
2023/07/10 09:51:05;;;;;;;6.43;2.03;;;;;;;27.23;100.00;102111.59;5034820;28;20033;-50
2023/07/10 09:53:33;;;;;;;8.25;2.65;;;;;;;27.13;100.00;102107.94;5052643;28;20032;-49
2023/07/10 09:55:59;;;;;;;4.72;2.05;;;;;;;27.41;100.00;102157.91;5052628;28;20468;-50
2023/07/10 09:58:25;;;;;;;5.68;1.88;;;;;;;27.57;100.00;102156.53;5052425;28;20036;-52
2023/07/10 10:00:51;;;;;;;6.60;1.98;;;;;;;27.47;100.00;102152.84;5052762;28;20056;-50
2023/07/10 10:03:27;;;;;;;7.68;2.53;;;;;;;28.30;100.00;102164.72;5034986;28;20472;-52
2023/07/10 10:05:57;;;;;;;7.63;2.10;;;;;;;28.07;100.00;102140.59;5052737;28;20033;-53
2023/07/10 10:08:32;;;;;;;5.68;1.67;;;;;;;27.56;100.00;102145.81;5034689;28;20028;-53
2023/07/10 10:11:07;;;;;;;8.73;2.70;;;;;;;26.97;100.00;102166.94;5034592;28;20029;-50
2023/07/10 10:13:38;;;;;;;9.95;2.15;;;;;;;26.38;100.00;102091.50;5034514;28;20442;-48
2023/07/10 10:16:24;;;;;;;7.50;2.30;;;;;;;26.95;100.00;102148.13;5033870;28;20029;-51
2023/07/10 10:19:04;;;;;;;6.45;2.00;;;;;;;27.18;100.00;102147.09;5052112;28;20427;-52
2023/07/10 10:21:32;;;;;;;9.73;2.17;;;;;;;27.56;100.00;102160.22;5052388;28;20469;-52
2023/07/10 10:24:03;;;;;;;7.60;2.22;;;;;;;28.07;100.00;102157.72;5034539;28;20279;-49
2023/07/10 10:26:59;;;;;;;10.43;2.40;;;;;;;28.99;100.00;102162.25;5018685;28;20570;-50
2023/07/10 10:29:53;;;;;;;8.68;2.40;;;;;;;29.33;100.00;102146.56;5052104;28;20391;-47
2023/07/10 10:32:37;;;;;;;10.52;2.50;;;;;;;29.58;100.00;102171.31;5051260;28;20033;-51
2023/07/10 10:35:19;;;;;;;7.93;2.25;;;;;;;29.26;100.00;102107.44;5052303;28;20041;-54
2023/07/10 10:38:18;;;;;;;7.70;2.58;;;;;;;28.63;100.00;102160.06;5034114;28;20060;-49
2023/07/10 10:40:53;;;;;;;6.80;1.88;;;;;;;28.62;100.00;102088.78;5051844;28;20037;-50
2023/07/10 10:43:18;;;;;;;9.90;2.53;;;;;;;29.50;100.00;102176.59;5052103;28;20040;-49
2023/07/10 10:45:50;;;;;;;7.00;2.38;;;;;;;28.51;100.00;102167.44;5052146;28;20029;-48
2023/07/10 10:48:26;;;;;;;9.40;2.15;;;;;;;27.96;100.00;102110.88;5034242;28;20029;-48
2023/07/10 10:51:00;;;;;;;8.07;2.25;;;;;;;27.55;100.00;102127.91;5052148;28;20033;-46
2023/07/10 10:53:38;;;;;;;7.72;2.10;;;;;;;28.01;100.00;102185.28;5051971;28;20033;-47
2023/07/10 10:56:15;;;;;;;8.55;2.38;;;;;;;28.65;100.00;102160.81;5051926;28;20120;-47
2023/07/10 10:59:02;;;;;;;5.70;2.17;;;;;;;29.39;100.00;102162.28;5051784;28;20537;-47
2023/07/10 11:01:32;;;;;;;3.53;1.65;;;;;;;29.76;100.00;102171.47;5052119;28;20051;-48
2023/07/10 11:04:19;;;;;;;4.97;1.60;;;;;;;30.15;100.00;102174.22;5017807;28;20392;-48
2023/07/10 11:07:05;;;;;;;4.72;1.83;;;;;;;30.07;100.00;102115.19;5034300;28;20037;-51
2023/07/10 11:09:52;;;;;;;10.75;2.05;;;;;;;30.52;100.00;102173.34;5033956;28;20388;-47
2023/07/10 11:12:23;;;;;;;6.97;2.08;;;;;;;30.38;100.00;102105.88;5033856;28;20029;-48
2023/07/10 11:14:52;;;;;;;8.80;2.10;;;;;;;30.75;100.00;102134.91;5034117;28;20124;-49
2023/07/10 11:17:17;;;;;;;4.72;1.88;;;;;;;30.88;100.00;102165.34;5051736;28;20029;-49
2023/07/10 11:19:43;;;;;;;8.98;2.55;;;;;;;31.13;100.00;102176.44;5051556;28;20493;-48
2023/07/10 11:22:11;;;;;;;6.45;1.98;;;;;;;31.09;100.00;102160.53;5034186;28;20479;-47